createdAt,value
2018-03-12T00:01:17.065Z,84.93
2018-03-12T00:03:44.939Z,85.38
2018-03-12T00:06:14.267Z,85.41
2018-03-12T00:08:42.098Z,85.75
2018-03-12T00:11:10.368Z,85.74
2018-03-12T00:13:38.122Z,86.48
2018-03-12T00:16:05.726Z,87.23
2018-03-12T00:18:33.358Z,87.52
2018-03-12T00:21:01.028Z,87.14
2018-03-12T00:23:28.638Z,87.24
2018-03-12T00:25:56.254Z,87.12
2018-03-12T00:28:23.803Z,86.84
2018-03-12T00:30:51.430Z,86.97
2018-03-12T00:33:18.995Z,87.12
2018-03-12T00:35:46.638Z,86.96
2018-03-12T00:38:14.233Z,86.65
2018-03-12T00:40:41.822Z,87.07
2018-03-12T00:43:09.889Z,87.21
2018-03-12T00:45:37.520Z,87.29
2018-03-12T00:48:05.146Z,86.92
2018-03-12T00:50:32.744Z,87.15
2018-03-12T00:53:00.332Z,87.68
2018-03-12T00:55:27.955Z,87.18
2018-03-12T00:57:55.571Z,86.76
2018-03-12T01:00:23.196Z,86.69
2018-03-12T01:02:50.830Z,86.58
2018-03-12T01:05:18.523Z,87.12
2018-03-12T01:07:46.099Z,86.67
2018-03-12T01:10:13.843Z,86.80
2018-03-12T01:12:41.407Z,86.72
2018-03-12T01:15:09.727Z,86.51
2018-03-12T01:17:37.346Z,86.43
2018-03-12T01:20:05.231Z,87.22
2018-03-12T01:22:32.778Z,86.92
2018-03-12T01:25:00.607Z,86.67
2018-03-12T01:27:28.193Z,85.99
2018-03-12T01:29:55.759Z,86.37
2018-03-12T01:32:23.393Z,86.45
2018-03-12T01:34:50.937Z,86.37
2018-03-12T01:37:19.358Z,86.51
2018-03-12T01:39:46.924Z,87.09
2018-03-12T01:42:14.590Z,87.62
2018-03-12T01:44:42.203Z,87.62
2018-03-12T01:47:10.889Z,86.92
2018-03-12T01:49:38.497Z,87.26
2018-03-12T01:52:06.056Z,87.22
2018-03-12T01:54:33.665Z,87.45
2018-03-12T01:57:01.248Z,87.51
2018-03-12T01:59:28.834Z,88.64
2018-03-12T02:01:56.439Z,88.09
2018-03-12T02:04:24.041Z,88.45
2018-03-12T02:06:51.662Z,88.76
2018-03-12T02:09:19.244Z,88.77
2018-03-12T02:11:46.883Z,88.68
2018-03-12T02:14:14.470Z,88.67
2018-03-12T02:16:42.099Z,89.61
2018-03-12T02:19:09.730Z,89.50
2018-03-12T02:21:37.292Z,89.03
2018-03-12T02:24:04.869Z,89.00
2018-03-12T02:26:32.470Z,88.29
2018-03-12T02:29:00.104Z,88.05
2018-03-12T02:31:27.674Z,88.06
2018-03-12T02:33:55.264Z,87.89
2018-03-12T02:36:22.846Z,88.09
2018-03-12T02:38:50.464Z,88.49
2018-03-12T02:41:18.233Z,88.88
2018-03-12T02:43:45.911Z,89.04
2018-03-12T02:46:13.480Z,89.15
2018-03-12T02:48:41.405Z,89.45
2018-03-12T02:51:09.631Z,88.72
2018-03-12T02:53:37.333Z,88.64
2018-03-12T02:56:04.960Z,88.91
2018-03-12T02:58:32.564Z,88.74
2018-03-12T03:01:00.171Z,89.38
2018-03-12T03:03:29.101Z,89.08
2018-03-12T03:05:57.174Z,89.17
2018-03-12T03:08:25.080Z,89.23
2018-03-12T03:10:54.718Z,89.26
2018-03-12T03:13:22.690Z,89.29
2018-03-12T03:15:50.290Z,89.20
2018-03-12T03:18:17.901Z,88.75
2018-03-12T03:20:47.292Z,88.84
2018-03-12T03:23:15.051Z,89.22
2018-03-12T03:28:32.870Z,88.75
2018-03-12T03:31:00.517Z,89.03
2018-03-12T03:33:32.660Z,88.68
2018-03-12T03:36:00.299Z,88.88
2018-03-12T03:38:27.842Z,89.10
2018-03-12T03:40:55.421Z,88.34
2018-03-12T03:43:23.071Z,88.07
2018-03-12T03:45:50.689Z,88.08
2018-03-12T03:48:20.072Z,87.71
2018-03-12T03:50:49.671Z,87.27
2018-03-12T03:53:17.243Z,86.72
2018-03-12T03:55:44.800Z,86.65
2018-03-12T03:58:12.525Z,86.99
2018-03-12T04:00:40.185Z,87.77
2018-03-12T04:03:08.078Z,87.96
2018-03-12T04:05:35.725Z,88.32
2018-03-12T04:08:03.278Z,88.43
2018-03-12T04:10:30.852Z,88.52
2018-03-12T04:12:58.446Z,89.18
2018-03-12T04:15:26.186Z,88.96
2018-03-12T04:17:53.808Z,88.79
2018-03-12T04:22:53.353Z,89.64
2018-03-12T04:25:22.137Z,90.16
2018-03-12T04:27:49.805Z,90.05
2018-03-12T04:30:17.441Z,90.26
2018-03-12T04:32:45.019Z,90.43
2018-03-12T04:35:12.781Z,90.40
2018-03-12T04:37:40.384Z,90.51
2018-03-12T04:40:07.937Z,90.96
2018-03-12T04:42:35.501Z,90.81
2018-03-12T04:45:03.203Z,90.66
2018-03-12T04:47:30.801Z,90.28
2018-03-12T04:49:58.418Z,90.16
2018-03-12T04:52:27.065Z,90.54
2018-03-12T04:54:54.633Z,90.83
2018-03-12T04:57:22.756Z,91.05
2018-03-12T04:59:50.544Z,91.42
2018-03-12T05:02:18.318Z,90.67
2018-03-12T05:04:45.921Z,88.84
2018-03-12T05:07:13.613Z,87.93
2018-03-12T05:09:41.408Z,88.44
2018-03-12T05:12:09.116Z,88.80
2018-03-12T05:14:36.687Z,89.38
2018-03-12T05:17:04.268Z,89.22
2018-03-12T05:19:31.847Z,89.16
2018-03-12T05:21:59.425Z,88.98
2018-03-12T05:24:27.001Z,89.35
2018-03-12T05:26:54.631Z,88.62
2018-03-12T05:29:22.376Z,88.11
2018-03-12T05:31:49.976Z,88.13
2018-03-12T05:34:17.627Z,87.18
2018-03-12T05:36:45.209Z,86.72
2018-03-12T05:39:13.568Z,86.75
2018-03-12T05:41:41.277Z,86.88
2018-03-12T05:44:08.859Z,87.06
2018-03-12T05:46:36.449Z,87.08
2018-03-12T05:49:04.099Z,86.13
2018-03-12T05:51:31.786Z,85.99
2018-03-12T05:53:59.353Z,85.97
2018-03-12T05:56:26.908Z,85.66
2018-03-12T05:58:54.493Z,85.85
2018-03-12T06:01:22.054Z,85.85
2018-03-12T06:03:49.617Z,85.81
2018-03-12T06:06:17.283Z,86.06
2018-03-12T06:08:44.888Z,85.83
2018-03-12T06:11:14.013Z,84.85
2018-03-12T06:13:41.633Z,84.33
2018-03-12T06:16:09.541Z,83.72
2018-03-12T06:18:37.094Z,83.64
2018-03-12T06:21:04.983Z,83.01
2018-03-12T06:23:33.459Z,83.67
2018-03-12T06:26:01.158Z,82.49
2018-03-12T06:28:28.781Z,82.62
2018-03-12T06:30:56.361Z,82.39
2018-03-12T06:33:24.326Z,82.17
2018-03-12T06:35:52.114Z,81.47
2018-03-12T06:38:19.727Z,81.33
2018-03-12T06:40:47.299Z,80.78
2018-03-12T06:43:15.295Z,80.36
2018-03-12T06:48:33.235Z,80.19
2018-03-12T06:51:00.831Z,79.35
2018-03-12T06:53:30.251Z,79.41
2018-03-12T06:55:57.866Z,80.18
2018-03-12T06:58:25.787Z,80.18
2018-03-12T07:00:53.369Z,79.13
2018-03-12T07:03:21.559Z,79.33
2018-03-12T07:05:49.118Z,79.89
2018-03-12T07:08:16.709Z,79.85
2018-03-12T07:10:44.318Z,80.27
2018-03-12T07:13:19.594Z,80.88
2018-03-12T07:15:48.508Z,81.76
2018-03-12T07:18:16.113Z,82.50
2018-03-12T07:20:43.690Z,83.16
2018-03-12T07:23:11.489Z,83.73
2018-03-12T07:25:39.899Z,83.85
2018-03-12T07:28:07.662Z,84.10
2018-03-12T07:30:36.034Z,83.59
2018-03-12T07:33:03.628Z,83.44
2018-03-12T07:35:31.239Z,83.09
2018-03-12T07:37:58.800Z,82.66
2018-03-12T07:40:26.522Z,82.69
2018-03-12T07:42:55.276Z,82.06
2018-03-12T07:45:27.546Z,81.77
2018-03-12T07:47:56.852Z,79.33
2018-03-12T07:50:24.507Z,79.52
2018-03-12T07:52:52.061Z,79.39
2018-03-12T07:55:19.844Z,77.18
2018-03-12T07:57:48.972Z,76.00
2018-03-12T08:00:16.624Z,75.78
2018-03-12T08:02:44.179Z,74.98
2018-03-12T08:05:13.707Z,75.89
2018-03-12T08:07:41.473Z,77.06
2018-03-12T08:10:09.031Z,77.03
2018-03-12T08:12:36.598Z,77.56
2018-03-12T08:15:05.988Z,78.14
2018-03-12T08:17:34.860Z,78.50
2018-03-12T08:20:02.435Z,78.81
2018-03-12T08:22:30.076Z,78.99
2018-03-12T08:24:57.712Z,78.50
2018-03-12T08:27:25.649Z,79.19
2018-03-12T08:29:53.246Z,79.30
2018-03-12T08:32:20.859Z,78.44
2018-03-12T08:34:48.834Z,78.53
2018-03-12T08:37:16.493Z,78.33
2018-03-12T08:39:44.114Z,78.89
2018-03-12T08:42:11.755Z,78.69
2018-03-12T08:44:39.732Z,79.40
2018-03-12T08:47:08.021Z,79.28
2018-03-12T08:49:35.636Z,79.31
2018-03-12T08:52:03.246Z,78.75
2018-03-12T08:54:30.800Z,77.99
2018-03-12T08:56:58.628Z,78.70
2018-03-12T08:59:26.485Z,78.31
2018-03-12T09:01:54.049Z,77.82
2018-03-12T09:04:22.353Z,77.92
2018-03-12T09:06:50.129Z,78.92
2018-03-12T09:09:17.729Z,79.64
2018-03-12T09:11:45.381Z,79.67
2018-03-12T09:14:12.972Z,79.66
2018-03-12T09:16:40.545Z,79.22
2018-03-12T09:19:08.330Z,79.31
2018-03-12T09:21:35.984Z,79.21
2018-03-12T09:24:03.532Z,79.24
2018-03-12T09:26:31.109Z,78.79
2018-03-12T09:28:58.721Z,79.37
2018-03-12T09:31:27.511Z,79.48
2018-03-12T09:33:55.265Z,79.78
2018-03-12T09:36:22.919Z,80.58
2018-03-12T09:38:50.538Z,80.68
2018-03-12T09:41:18.135Z,80.20
2018-03-12T09:43:45.732Z,80.86
2018-03-12T09:46:13.343Z,81.30
2018-03-12T09:48:41.060Z,81.80
2018-03-12T09:51:08.740Z,80.72
2018-03-12T09:53:36.309Z,82.32
2018-03-12T09:56:03.898Z,82.92
2018-03-12T09:58:31.471Z,85.08
2018-03-12T10:00:59.303Z,85.32
2018-03-12T10:03:26.929Z,86.60
2018-03-12T10:05:54.555Z,87.16
2018-03-12T10:08:23.997Z,87.53
2018-03-12T10:10:51.626Z,87.98
2018-03-12T10:13:20.295Z,87.98
2018-03-12T10:15:47.868Z,88.01
2018-03-12T10:18:15.584Z,89.24
2018-03-12T10:20:44.203Z,89.59
2018-03-12T10:23:12.079Z,89.31
2018-03-12T10:25:39.769Z,89.09
2018-03-12T10:28:07.788Z,88.22
2018-03-12T10:30:36.261Z,88.46
2018-03-12T10:33:03.832Z,89.45
2018-03-12T10:35:31.777Z,89.09
2018-03-12T10:37:59.444Z,90.42
2018-03-12T10:40:27.068Z,90.76
2018-03-12T10:42:54.788Z,91.37
2018-03-12T10:45:23.004Z,91.21
2018-03-12T10:47:50.601Z,91.61
2018-03-12T10:50:18.179Z,90.60
2018-03-12T10:52:45.732Z,90.17
2018-03-12T10:55:13.356Z,91.08
2018-03-12T10:57:41.277Z,91.40
2018-03-12T11:00:08.914Z,91.52
2018-03-12T11:02:49.986Z,91.37
2018-03-12T11:05:23.523Z,92.07
2018-03-12T11:07:51.160Z,91.66
2018-03-12T11:10:19.127Z,92.14
2018-03-12T11:12:46.790Z,91.78
2018-03-12T11:15:14.400Z,91.78
2018-03-12T11:17:42.480Z,91.75
2018-03-12T11:20:12.562Z,92.24
2018-03-12T11:22:40.140Z,92.23
2018-03-12T11:25:08.026Z,92.10
2018-03-12T11:27:35.594Z,91.65
2018-03-12T11:30:03.228Z,91.40
2018-03-12T11:32:31.799Z,91.78
2018-03-12T11:34:59.383Z,91.70
2018-03-12T11:37:29.723Z,89.32
2018-03-12T11:39:59.352Z,90.29
2018-03-12T11:42:34.520Z,91.41
2018-03-12T11:45:06.234Z,91.25
2018-03-12T11:47:34.377Z,90.01
2018-03-12T11:50:05.993Z,90.84
2018-03-12T11:52:38.495Z,90.84
2018-03-12T11:55:06.497Z,89.93
2018-03-12T11:57:35.965Z,89.84
2018-03-12T12:00:08.285Z,89.50
2018-03-12T12:02:36.051Z,89.48
2018-03-12T12:05:03.703Z,90.20
2018-03-12T12:07:31.533Z,90.36
2018-03-12T12:09:59.118Z,89.41
2018-03-12T12:12:26.734Z,89.90
2018-03-12T12:14:54.342Z,90.12
2018-03-12T12:17:21.912Z,88.81
2018-03-12T12:19:49.465Z,87.27
2018-03-12T12:22:17.191Z,87.72
2018-03-12T12:24:44.953Z,86.36
2018-03-12T12:27:12.862Z,87.76
2018-03-12T12:29:40.486Z,88.26
2018-03-12T12:32:08.126Z,88.72
2018-03-12T12:34:35.762Z,88.53
2018-03-12T12:37:03.438Z,86.59
2018-03-12T12:39:31.263Z,86.41
2018-03-12T12:41:58.867Z,86.12
2018-03-12T12:44:27.268Z,84.83
2018-03-12T12:46:54.892Z,85.14
2018-03-12T12:49:22.515Z,84.84
2018-03-12T12:51:50.208Z,84.86
2018-03-12T12:54:18.014Z,84.85
2018-03-12T12:56:45.589Z,84.69
2018-03-12T12:59:14.318Z,84.21
2018-03-12T13:01:41.985Z,84.65
2018-03-12T13:04:09.703Z,85.29
2018-03-12T13:09:09.279Z,84.20
2018-03-12T13:16:42.483Z,84.01
2018-03-12T13:19:10.599Z,84.06
2018-03-12T13:21:39.199Z,84.51
2018-03-12T13:24:06.821Z,84.16
2018-03-12T13:26:34.406Z,84.24
2018-03-12T13:29:01.997Z,83.17
2018-03-12T13:31:30.026Z,82.32
2018-03-12T13:33:57.628Z,82.88
2018-03-12T13:36:25.538Z,82.78
2018-03-12T13:38:53.144Z,83.09
2018-03-12T13:41:20.999Z,83.33
2018-03-12T13:43:48.720Z,83.26
2018-03-12T13:46:16.248Z,82.97
2018-03-12T13:48:43.863Z,81.74
2018-03-12T13:51:12.555Z,82.78
2018-03-12T13:53:40.285Z,82.55
2018-03-12T13:56:08.259Z,81.25
2018-03-12T13:58:35.829Z,80.15
2018-03-12T14:01:03.424Z,79.17
2018-03-12T14:03:31.024Z,78.22
2018-03-12T14:05:58.636Z,77.23
2018-03-12T14:08:26.256Z,77.08
2018-03-12T14:10:53.890Z,76.45
2018-03-12T14:13:23.575Z,75.40
2018-03-12T14:15:51.325Z,75.62
2018-03-12T14:18:18.962Z,75.37
2018-03-12T14:20:46.597Z,75.86
2018-03-12T14:23:14.441Z,74.76
2018-03-12T14:25:43.049Z,74.79
2018-03-12T14:28:10.903Z,73.45
2018-03-12T14:30:38.533Z,73.06
2018-03-12T14:33:06.131Z,71.81
2018-03-12T14:35:34.142Z,71.48
2018-03-12T14:38:01.799Z,71.74
2018-03-12T14:40:31.203Z,74.09
2018-03-12T14:42:58.871Z,72.35
2018-03-12T14:45:26.444Z,69.69
2018-03-12T14:47:54.036Z,69.03
2018-03-12T14:50:21.634Z,68.58
2018-03-12T14:52:49.251Z,69.53
2018-03-12T14:55:16.904Z,70.63
2018-03-12T14:57:44.734Z,71.69
2018-03-12T15:00:12.400Z,71.23
2018-03-12T15:02:47.774Z,71.78
2018-03-12T15:05:20.524Z,72.16
2018-03-12T15:07:51.965Z,72.33
2018-03-12T15:10:19.605Z,71.60
2018-03-12T15:12:50.486Z,72.18
2018-03-12T15:15:18.887Z,71.99
2018-03-12T15:17:51.001Z,71.59
2018-03-12T15:20:20.925Z,72.33
2018-03-12T15:22:50.407Z,72.20
2018-03-12T15:25:18.025Z,71.26
2018-03-12T15:27:47.598Z,72.09
2018-03-12T15:30:15.260Z,72.99
2018-03-12T15:32:44.217Z,74.54
2018-03-12T15:35:13.054Z,76.17
2018-03-12T15:37:40.642Z,79.99
2018-03-12T15:40:08.218Z,82.68
2018-03-12T15:42:35.788Z,83.51
2018-03-12T15:45:07.660Z,82.46
2018-03-12T15:47:41.229Z,84.39
2018-03-12T15:50:09.120Z,85.14
2018-03-12T15:52:39.399Z,85.80
2018-03-12T15:55:07.213Z,87.37
2018-03-12T15:57:36.305Z,89.17
2018-03-12T16:00:04.156Z,89.94
2018-03-12T16:02:31.786Z,90.37
2018-03-12T16:04:59.476Z,91.13
2018-03-12T16:07:28.483Z,92.10
2018-03-12T16:09:57.107Z,92.84
2018-03-12T16:12:29.877Z,91.54
2018-03-12T16:14:57.495Z,91.63
2018-03-12T16:17:28.122Z,91.83
2018-03-12T16:19:55.681Z,91.75
2018-03-12T16:22:28.264Z,92.28
2018-03-12T16:24:55.813Z,92.58
2018-03-12T16:27:23.406Z,92.99
2018-03-12T16:29:51.017Z,93.44
2018-03-12T16:32:18.798Z,93.71
2018-03-12T16:34:46.362Z,94.08
2018-03-12T16:37:14.663Z,94.26
2018-03-12T16:39:42.252Z,94.27
2018-03-12T16:42:10.100Z,94.52
2018-03-12T16:44:37.698Z,94.87
2018-03-12T16:47:05.359Z,95.04
2018-03-12T16:49:36.592Z,94.98
2018-03-12T16:52:04.176Z,94.70
2018-03-12T16:54:33.415Z,94.83
2018-03-12T16:56:59.465Z,95.12
2018-03-12T16:59:27.045Z,95.12
2018-03-12T17:01:54.618Z,95.20
2018-03-12T17:04:24.232Z,95.30
2018-03-12T17:06:51.824Z,95.43
2018-03-12T17:09:20.404Z,95.48
2018-03-12T17:11:48.454Z,95.58
2018-03-12T17:14:16.309Z,95.63
2018-03-12T17:16:43.884Z,95.45
2018-03-12T17:19:12.257Z,95.56
2018-03-12T17:21:39.968Z,95.50
2018-03-12T17:24:07.565Z,95.61
2018-03-12T17:26:35.181Z,95.63
2018-03-12T17:29:02.732Z,95.34
2018-03-12T17:31:32.173Z,95.42
2018-03-12T17:33:59.886Z,95.35
2018-03-12T17:36:30.271Z,95.43
2018-03-12T17:38:57.954Z,95.39
2018-03-12T17:41:26.795Z,95.41
2018-03-12T17:43:55.187Z,95.67
2018-03-12T17:46:22.851Z,95.70
2018-03-12T17:48:50.446Z,95.79
2018-03-12T17:51:18.676Z,95.89
2018-03-12T17:53:46.291Z,95.83
2018-03-12T17:56:13.869Z,95.93
2018-03-12T17:58:41.429Z,95.69
2018-03-12T18:01:09.141Z,95.71
2018-03-12T18:03:37.186Z,95.75
2018-03-12T18:06:04.830Z,96.01
2018-03-12T18:11:23.122Z,96.12
2018-03-12T18:13:50.837Z,96.23
2018-03-12T18:16:19.012Z,96.28
2018-03-12T18:18:46.662Z,96.26
2018-03-12T18:21:15.933Z,96.24
2018-03-12T18:23:43.695Z,96.26
2018-03-12T18:26:11.318Z,96.08
2018-03-12T18:28:38.934Z,96.11
2018-03-12T18:31:07.170Z,96.29
2018-03-12T18:33:36.690Z,96.02
2018-03-12T18:36:04.732Z,96.21
2018-03-12T18:38:32.359Z,95.86
2018-03-12T18:40:59.994Z,95.94
2018-03-12T18:43:27.706Z,95.91
2018-03-12T18:45:55.293Z,96.19
2018-03-12T18:48:23.725Z,96.17
2018-03-12T18:50:52.211Z,96.34
2018-03-12T18:53:19.910Z,96.28
2018-03-12T18:55:48.748Z,96.51
2018-03-12T18:58:16.752Z,96.54
2018-03-12T19:00:45.276Z,96.54
2018-03-12T19:03:14.128Z,96.78
2018-03-12T19:05:42.242Z,96.96
2018-03-12T19:08:09.840Z,96.84
2018-03-12T19:10:37.439Z,96.84
2018-03-12T19:13:05.788Z,96.71
2018-03-12T19:15:34.262Z,96.22
2018-03-12T19:18:04.017Z,95.98
2018-03-12T19:20:31.607Z,95.87
2018-03-12T19:22:59.485Z,95.94
2018-03-12T19:25:27.121Z,95.91
2018-03-12T19:27:54.697Z,95.94
2018-03-12T19:30:22.308Z,96.19
2018-03-12T19:32:49.986Z,96.40
2018-03-12T19:35:21.706Z,96.54
2018-03-12T19:37:53.583Z,96.37
2018-03-12T19:40:21.286Z,96.42
2018-03-12T19:42:48.892Z,96.47
2018-03-12T19:45:18.372Z,96.59
2018-03-12T19:47:46.428Z,96.56
2018-03-12T19:50:14.038Z,96.39
2018-03-12T19:52:47.980Z,96.40
2018-03-12T19:55:15.756Z,96.44
2018-03-12T19:57:43.788Z,96.57
2018-03-12T20:00:12.034Z,96.60
2018-03-12T20:02:39.613Z,96.57
2018-03-12T20:05:07.215Z,96.69
2018-03-12T20:07:40.295Z,96.70
2018-03-12T20:10:09.678Z,96.68
2018-03-12T20:12:44.313Z,96.68
2018-03-12T20:15:35.743Z,96.79
2018-03-12T20:18:03.927Z,96.90
2018-03-12T20:20:32.955Z,96.98
2018-03-12T20:23:00.545Z,97.13
2018-03-12T20:25:28.217Z,96.94
2018-03-12T20:27:55.999Z,96.88
2018-03-12T20:30:23.659Z,96.91
2018-03-12T20:32:51.303Z,96.87
2018-03-12T20:35:20.721Z,96.98
2018-03-12T20:37:48.638Z,96.94
2018-03-12T20:40:16.220Z,96.97
2018-03-12T20:42:43.799Z,97.03
2018-03-12T20:45:12.535Z,96.97
2018-03-12T20:47:40.110Z,96.61
2018-03-12T20:50:07.675Z,96.77
2018-03-12T20:52:35.313Z,96.98
2018-03-12T20:55:02.912Z,97.19
2018-03-12T20:57:30.643Z,96.96
2018-03-12T20:59:58.343Z,96.66
2018-03-12T21:05:16.568Z,96.39
2018-03-12T21:07:44.564Z,96.37
2018-03-12T21:10:12.346Z,96.53
2018-03-12T21:12:39.911Z,96.73
2018-03-12T21:15:07.911Z,96.76
2018-03-12T21:17:35.937Z,96.91
2018-03-12T21:20:03.554Z,96.82
2018-03-12T21:22:31.206Z,96.93
2018-03-12T21:24:58.872Z,97.06
2018-03-12T21:27:27.018Z,97.07
2018-03-12T21:29:54.632Z,96.58
2018-03-12T21:32:23.636Z,96.65
2018-03-12T21:34:51.538Z,96.64
2018-03-12T21:37:20.941Z,96.76
2018-03-12T21:39:48.858Z,96.91
2018-03-12T21:42:16.680Z,96.94
2018-03-12T21:44:44.271Z,96.91
2018-03-12T21:47:12.611Z,96.96
2018-03-12T21:49:41.261Z,96.69
2018-03-12T21:52:12.682Z,96.79
2018-03-12T21:54:40.319Z,96.73
2018-03-12T21:57:08.224Z,96.61
2018-03-12T21:59:35.795Z,96.69
2018-03-12T22:02:03.393Z,96.83
2018-03-12T22:04:31.065Z,96.99
2018-03-12T22:06:58.691Z,96.88
2018-03-12T22:09:26.312Z,96.77
2018-03-12T22:11:54.778Z,96.80
2018-03-12T22:14:22.437Z,96.91
2018-03-12T22:16:50.017Z,97.19
2018-03-12T22:19:17.698Z,97.27
2018-03-12T22:21:45.523Z,97.36
2018-03-12T22:24:13.258Z,97.46
2018-03-12T22:26:40.870Z,97.46
2018-03-12T22:29:08.848Z,97.72
2018-03-12T22:31:36.502Z,97.56
2018-03-12T22:34:04.233Z,97.50
2018-03-12T22:36:31.868Z,97.50
2018-03-12T22:38:59.462Z,97.29
2018-03-12T22:41:27.054Z,97.25
2018-03-12T22:43:54.977Z,97.05
2018-03-12T22:46:22.599Z,97.26
2018-03-12T22:48:50.224Z,97.33
2018-03-12T22:51:17.799Z,97.47
2018-03-12T22:53:47.281Z,97.53
2018-03-12T22:59:05.526Z,97.57
2018-03-12T23:01:36.754Z,97.61
2018-03-12T23:04:06.620Z,97.71
2018-03-12T23:06:34.586Z,97.69
2018-03-12T23:09:04.832Z,97.92
2018-03-12T23:11:32.460Z,97.81
2018-03-12T23:14:00.226Z,97.82
2018-03-12T23:16:30.781Z,97.75
2018-03-12T23:19:01.088Z,97.65
2018-03-12T23:21:29.985Z,97.73
2018-03-12T23:23:59.007Z,97.70
2018-03-12T23:26:27.138Z,97.74
2018-03-12T23:28:54.691Z,97.83
2018-03-12T23:31:24.048Z,97.83
2018-03-12T23:33:52.673Z,97.84
2018-03-12T23:36:20.307Z,97.81
2018-03-12T23:38:52.196Z,97.75
2018-03-12T23:41:21.057Z,97.66
2018-03-12T23:43:49.694Z,97.84
2018-03-12T23:46:17.282Z,97.72
2018-03-12T23:48:44.876Z,97.68
2018-03-12T23:51:13.532Z,97.63
2018-03-12T23:53:41.213Z,97.78
2018-03-12T23:56:08.831Z,97.88
2018-03-12T23:58:36.464Z,97.70
